createdAt,value
2023-04-18T00:00:57.280Z,6.80
2023-04-18T00:03:26.694Z,6.10
2023-04-18T00:05:55.221Z,6.63
2023-04-18T00:08:23.692Z,6.93
2023-04-18T00:10:54.134Z,7.65
2023-04-18T00:13:22.921Z,7.23
2023-04-18T00:15:54.175Z,6.95
2023-04-18T00:18:26.602Z,7.20
2023-04-18T00:20:55.113Z,6.93
2023-04-18T00:23:23.520Z,7.60
2023-04-18T00:25:52.969Z,6.80
2023-04-18T00:28:21.372Z,7.07
2023-04-18T00:30:50.486Z,7.45
2023-04-18T00:33:21.043Z,7.60
2023-04-18T00:35:49.533Z,7.50
2023-04-18T00:38:18.058Z,7.43
2023-04-18T00:40:46.538Z,7.32
2023-04-18T00:43:17.151Z,7.65
2023-04-18T00:45:45.738Z,8.10
2023-04-18T00:48:14.205Z,7.47
2023-04-18T00:50:42.859Z,7.90
2023-04-18T00:53:11.877Z,8.13
2023-04-18T00:55:40.659Z,8.40
2023-04-18T00:58:10.036Z,8.00
2023-04-18T01:00:39.522Z,8.80
2023-04-18T01:03:08.440Z,8.47
2023-04-18T01:05:37.283Z,8.50
2023-04-18T01:08:06.189Z,8.63
2023-04-18T01:10:37.260Z,7.88
2023-04-18T01:13:11.688Z,8.48
2023-04-18T01:15:43.721Z,8.60
2023-04-18T01:18:13.232Z,9.05
2023-04-18T01:20:45.828Z,9.20
2023-04-18T01:23:14.387Z,8.95
2023-04-18T01:25:44.378Z,9.68
2023-04-18T01:28:12.892Z,8.80
2023-04-18T01:30:41.552Z,10.38
2023-04-18T01:33:10.158Z,9.85
2023-04-18T01:35:38.726Z,10.80
2023-04-18T01:38:07.325Z,10.65
2023-04-18T01:40:35.772Z,10.63
2023-04-18T01:43:05.407Z,10.45
2023-04-18T01:45:33.916Z,10.57
2023-04-18T01:48:03.494Z,10.90
2023-04-18T01:50:31.950Z,10.85
2023-04-18T01:53:00.436Z,10.97
2023-04-18T01:55:28.876Z,11.30
2023-04-18T01:57:57.557Z,11.20
2023-04-18T02:00:28.351Z,10.30
2023-04-18T02:02:56.926Z,9.82
2023-04-18T02:05:27.068Z,10.50
2023-04-18T02:07:55.544Z,10.05
2023-04-18T02:10:23.972Z,11.38
2023-04-18T02:12:52.357Z,10.98
2023-04-18T02:15:21.112Z,12.00
2023-04-18T02:17:50.576Z,10.53
2023-04-18T02:20:18.989Z,12.25
2023-04-18T02:22:47.912Z,10.98
2023-04-18T02:25:16.564Z,11.82
2023-04-18T02:27:45.033Z,11.15
2023-04-18T02:30:13.563Z,11.37
2023-04-18T02:32:42.071Z,11.45
2023-04-18T02:35:12.606Z,11.82
2023-04-18T02:37:41.409Z,11.85
2023-04-18T02:40:10.792Z,11.23
2023-04-18T02:42:39.199Z,12.00
2023-04-18T02:45:08.629Z,11.68
2023-04-18T02:47:46.929Z,11.77
2023-04-18T02:50:19.699Z,11.70
2023-04-18T02:52:48.262Z,11.98
2023-04-18T02:55:18.479Z,12.57
2023-04-18T02:57:47.803Z,11.50
2023-04-18T03:00:34.557Z,12.07
2023-04-18T03:03:16.894Z,11.98
2023-04-18T03:06:07.649Z,11.60
2023-04-18T03:08:36.138Z,11.63
2023-04-18T03:11:04.845Z,11.90
2023-04-18T03:13:34.732Z,11.80
2023-04-18T03:16:03.523Z,11.95
2023-04-18T03:18:33.421Z,11.82
2023-04-18T03:21:01.982Z,12.33
2023-04-18T03:23:33.493Z,10.88
2023-04-18T03:26:06.485Z,11.77
2023-04-18T03:28:36.898Z,12.32
2023-04-18T03:31:05.540Z,11.70
2023-04-18T03:33:39.271Z,11.87
2023-04-18T03:36:12.057Z,12.23
2023-04-18T03:38:43.130Z,12.00
2023-04-18T03:41:11.760Z,11.38
2023-04-18T03:43:40.541Z,11.25
2023-04-18T03:46:08.974Z,12.00
2023-04-18T03:48:38.649Z,11.85
2023-04-18T03:51:12.679Z,11.75
2023-04-18T03:53:48.030Z,12.18
2023-04-18T03:56:18.414Z,12.48
2023-04-18T03:58:52.632Z,12.23
2023-04-18T04:01:22.668Z,11.68
2023-04-18T04:03:53.599Z,12.48
2023-04-18T04:06:22.584Z,12.15
2023-04-18T04:08:52.117Z,11.65
2023-04-18T04:11:25.134Z,12.10
2023-04-18T04:13:54.462Z,11.75
2023-04-18T04:16:27.682Z,13.40
2023-04-18T04:18:57.120Z,12.88
2023-04-18T04:21:32.415Z,12.82
2023-04-18T04:24:02.980Z,12.33
2023-04-18T04:26:36.860Z,12.07
2023-04-18T04:29:11.787Z,12.98
2023-04-18T04:31:41.195Z,13.15
2023-04-18T04:34:09.744Z,12.55
2023-04-18T04:36:38.128Z,12.47
2023-04-18T04:39:09.267Z,12.48
2023-04-18T04:41:57.161Z,12.40
2023-04-18T04:44:28.383Z,12.68
2023-04-18T04:46:56.932Z,13.25
2023-04-18T04:49:31.400Z,12.60
2023-04-18T04:52:01.411Z,12.60
2023-04-18T04:54:31.912Z,13.48
2023-04-18T04:57:01.614Z,12.80
2023-04-18T04:59:30.183Z,12.45
2023-04-18T05:01:58.939Z,12.93
2023-04-18T05:04:27.737Z,12.23
2023-04-18T05:06:56.419Z,13.35
2023-04-18T05:09:24.901Z,12.20
2023-04-18T05:11:54.678Z,13.88
2023-04-18T05:14:23.201Z,12.37
2023-04-18T05:16:53.457Z,13.32
2023-04-18T05:19:22.326Z,13.15
2023-04-18T05:21:51.181Z,13.27
2023-04-18T05:24:20.055Z,32.65
2023-04-18T05:26:48.935Z,17.97
2023-04-18T05:29:18.537Z,24.42
2023-04-18T05:31:47.294Z,13.45
2023-04-18T05:34:16.018Z,13.23
2023-04-18T05:36:44.754Z,12.88
2023-04-18T05:39:13.569Z,12.70
2023-04-18T05:41:42.952Z,12.63
2023-04-18T05:44:12.490Z,13.55
2023-04-18T05:46:42.121Z,12.40
2023-04-18T05:49:10.945Z,11.55
2023-04-18T05:51:39.453Z,12.60
2023-04-18T05:54:07.789Z,12.32
2023-04-18T05:56:36.210Z,12.65
2023-04-18T05:59:06.609Z,12.13
2023-04-18T06:01:35.043Z,12.65
2023-04-18T06:04:04.899Z,12.97
2023-04-18T06:06:33.439Z,12.48
2023-04-18T06:09:01.902Z,12.90
2023-04-18T06:11:33.563Z,12.23
2023-04-18T06:14:02.264Z,12.15
2023-04-18T06:16:30.919Z,11.80
2023-04-18T06:19:01.220Z,12.60
2023-04-18T06:21:30.957Z,13.55
2023-04-18T06:24:01.388Z,12.90
2023-04-18T06:26:30.570Z,12.02
2023-04-18T06:28:59.255Z,12.00
2023-04-18T06:31:27.953Z,13.07
2023-04-18T06:33:57.152Z,12.05
2023-04-18T06:36:26.856Z,13.20
2023-04-18T06:38:58.911Z,12.70
2023-04-18T06:41:27.447Z,12.80
2023-04-18T06:44:03.645Z,13.52
2023-04-18T06:46:33.378Z,13.25
2023-04-18T06:49:04.018Z,12.13
2023-04-18T06:51:33.710Z,12.88
2023-04-18T06:54:11.781Z,13.80
2023-04-18T06:56:40.457Z,13.07
2023-04-18T06:59:09.093Z,12.65
2023-04-18T07:01:42.520Z,12.45
2023-04-18T07:04:11.586Z,12.30
2023-04-18T07:06:40.518Z,12.37
2023-04-18T07:09:10.333Z,12.27
2023-04-18T07:11:39.528Z,12.35
2023-04-18T07:14:08.075Z,11.73
2023-04-18T07:16:39.823Z,12.25
2023-04-18T07:19:08.409Z,11.37
2023-04-18T07:21:37.710Z,12.52
2023-04-18T07:24:06.328Z,12.30
2023-04-18T07:26:35.971Z,12.68
2023-04-18T07:29:04.460Z,12.40
2023-04-18T07:31:33.037Z,11.77
2023-04-18T07:34:02.631Z,11.95
2023-04-18T07:39:48.831Z,11.98
2023-04-18T07:42:18.965Z,11.77
2023-04-18T07:44:47.978Z,12.57
2023-04-18T07:47:16.481Z,11.15
2023-04-18T07:49:44.954Z,11.13
2023-04-18T07:52:13.326Z,10.98
2023-04-18T07:54:43.313Z,12.32
2023-04-18T07:57:11.932Z,11.13
2023-04-18T07:59:42.109Z,10.95
2023-04-18T08:02:10.694Z,11.43
2023-04-18T08:04:39.470Z,11.88
2023-04-18T08:07:08.040Z,12.00
2023-04-18T08:09:39.045Z,10.17
2023-04-18T08:12:09.235Z,10.60
2023-04-18T08:14:37.911Z,10.05
2023-04-18T08:17:07.565Z,9.75
2023-04-18T08:19:36.149Z,9.15
2023-04-18T08:22:10.670Z,9.37
2023-04-18T08:24:39.384Z,9.25
2023-04-18T08:27:08.225Z,8.98
2023-04-18T08:29:36.824Z,9.57
2023-04-18T08:32:09.664Z,9.52
2023-04-18T08:34:40.855Z,9.23
2023-04-18T08:37:14.946Z,9.63
2023-04-18T08:39:46.113Z,9.68
2023-04-18T08:42:19.418Z,9.63
2023-04-18T08:44:48.001Z,9.93
2023-04-18T08:47:17.567Z,9.83
2023-04-18T08:49:46.782Z,10.65
2023-04-18T08:52:16.799Z,9.85
2023-04-18T08:55:04.033Z,10.00
2023-04-18T08:57:33.373Z,9.43
2023-04-18T09:00:02.094Z,10.40
2023-04-18T09:02:42.916Z,10.15
2023-04-18T09:05:13.540Z,10.13
2023-04-18T09:07:45.389Z,9.63
2023-04-18T09:10:15.512Z,9.27
2023-04-18T09:12:50.599Z,10.00
2023-04-18T09:15:24.545Z,9.55
2023-04-18T09:17:56.466Z,9.57
2023-04-18T09:20:35.102Z,9.00
2023-04-18T09:23:05.035Z,9.73
2023-04-18T09:25:36.142Z,9.83
2023-04-18T09:28:09.046Z,9.15
2023-04-18T09:30:39.450Z,8.15
2023-04-18T09:33:11.061Z,8.52
2023-04-18T09:35:39.838Z,7.78
2023-04-18T09:38:09.662Z,7.17
2023-04-18T09:40:41.482Z,7.63
2023-04-18T09:43:20.656Z,8.07
2023-04-18T09:45:52.052Z,6.90
2023-04-18T09:48:22.922Z,8.98
2023-04-18T09:50:51.855Z,7.63
2023-04-18T09:53:21.469Z,6.70
2023-04-18T09:55:56.132Z,7.35
2023-04-18T09:58:29.498Z,7.10
2023-04-18T10:00:58.353Z,6.88
2023-04-18T10:03:43.256Z,7.27
2023-04-18T10:06:13.214Z,6.68
2023-04-18T10:08:43.279Z,6.88
2023-04-18T10:11:14.600Z,6.60
2023-04-18T10:13:46.441Z,7.28
2023-04-18T10:16:16.988Z,7.47
2023-04-18T10:18:46.904Z,7.72
2023-04-18T10:21:15.578Z,8.15
2023-04-18T10:23:45.926Z,7.75
2023-04-18T10:26:14.396Z,7.53
2023-04-18T10:28:54.584Z,7.50
2023-04-18T10:31:23.883Z,7.93
2023-04-18T10:34:04.727Z,7.15
2023-04-18T10:36:34.710Z,7.60
2023-04-18T10:39:22.820Z,7.88
2023-04-18T10:41:51.830Z,7.97
2023-04-18T10:44:24.272Z,7.45
2023-04-18T10:47:32.294Z,7.63
2023-04-18T10:50:07.061Z,6.85
2023-04-18T10:52:36.130Z,7.30
2023-04-18T10:55:17.577Z,6.70
2023-04-18T10:57:47.496Z,7.70
2023-04-18T11:00:23.680Z,6.78
2023-04-18T11:02:55.988Z,6.85
2023-04-18T11:05:28.114Z,6.75
2023-04-18T11:08:00.164Z,6.03
2023-04-18T11:10:30.517Z,6.57
2023-04-18T11:13:04.591Z,6.22
2023-04-18T11:15:33.361Z,6.60
2023-04-18T11:18:02.907Z,6.32
2023-04-18T11:20:39.511Z,5.93
2023-04-18T11:23:17.161Z,5.60
2023-04-18T11:25:45.934Z,5.75
2023-04-18T11:28:16.760Z,6.30
2023-04-18T11:30:45.178Z,5.90
2023-04-18T11:33:14.423Z,6.13
2023-04-18T11:35:45.021Z,6.63
2023-04-18T11:38:16.638Z,5.82
2023-04-18T11:40:58.763Z,5.85
2023-04-18T11:43:27.319Z,6.60
2023-04-18T11:45:58.077Z,6.77
2023-04-18T11:48:36.181Z,11.30
2023-04-18T11:51:33.586Z,8.57
2023-04-18T11:54:02.169Z,6.50
2023-04-18T11:56:30.814Z,6.40
2023-04-18T11:59:00.603Z,6.50
2023-04-18T12:01:32.117Z,6.65
2023-04-18T12:04:21.589Z,7.35
2023-04-18T12:06:58.633Z,7.47
2023-04-18T12:09:27.075Z,6.30
2023-04-18T12:11:59.217Z,6.83
2023-04-18T12:14:27.747Z,6.63
2023-04-18T12:17:20.407Z,6.28
2023-04-18T12:19:50.007Z,6.95
2023-04-18T12:22:28.681Z,7.57
2023-04-18T12:25:20.340Z,6.93
2023-04-18T12:27:57.865Z,6.80
2023-04-18T12:30:35.295Z,7.10
2023-04-18T12:33:10.408Z,6.63
2023-04-18T12:36:31.893Z,6.72
2023-04-18T12:39:07.654Z,6.77
2023-04-18T12:41:49.447Z,6.35
2023-04-18T12:44:55.018Z,6.57
2023-04-18T12:50:33.436Z,6.75
2023-04-18T12:56:52.926Z,5.97
2023-04-18T12:59:28.207Z,5.45
2023-04-18T13:02:06.987Z,5.65
2023-04-18T13:04:45.397Z,6.00
2023-04-18T13:07:23.195Z,6.90
2023-04-18T13:09:56.134Z,5.47
2023-04-18T13:12:30.898Z,5.38
2023-04-18T13:15:30.084Z,5.47
2023-04-18T13:18:09.554Z,5.60
2023-04-18T13:20:39.629Z,6.03
2023-04-18T13:23:13.940Z,5.43
2023-04-18T13:25:58.658Z,5.80
2023-04-18T13:32:36.815Z,5.75
2023-04-18T13:35:11.546Z,6.13
2023-04-18T13:37:41.072Z,5.15
2023-04-18T13:40:19.017Z,5.72
2023-04-18T13:43:17.326Z,5.45
2023-04-18T13:46:13.987Z,5.50
2023-04-18T13:48:46.263Z,5.70
2023-04-18T13:51:17.508Z,4.32
2023-04-18T13:53:46.305Z,4.50
2023-04-18T13:56:17.720Z,4.68
2023-04-18T13:58:46.291Z,5.20
2023-04-18T14:01:16.597Z,4.77
2023-04-18T14:03:47.169Z,4.20
2023-04-18T14:06:15.961Z,4.93
2023-04-18T14:08:49.125Z,7.45
2023-04-18T14:11:17.772Z,4.65
2023-04-18T14:13:48.184Z,5.40
2023-04-18T14:16:19.256Z,4.35
2023-04-18T14:18:48.974Z,4.38
2023-04-18T14:21:17.441Z,4.75
2023-04-18T14:23:48.142Z,5.18
2023-04-18T14:26:16.758Z,4.30
2023-04-18T14:28:48.480Z,4.20
2023-04-18T14:31:20.866Z,4.45
2023-04-18T14:33:52.243Z,4.53
2023-04-18T14:36:24.806Z,4.72
2023-04-18T14:41:59.201Z,5.93
2023-04-18T14:44:27.801Z,6.15
2023-04-18T14:46:56.633Z,6.97
2023-04-18T14:49:26.401Z,7.22
2023-04-18T14:51:54.990Z,6.67
2023-04-18T14:54:23.451Z,6.72
2023-04-18T14:57:11.184Z,6.53
2023-04-18T14:59:48.466Z,6.97
2023-04-18T15:02:21.376Z,6.55
2023-04-18T15:04:52.220Z,6.60
2023-04-18T15:07:29.599Z,6.53
2023-04-18T15:10:03.696Z,6.60
2023-04-18T15:12:32.221Z,6.88
2023-04-18T15:15:01.185Z,6.30
2023-04-18T15:17:29.829Z,6.07
2023-04-18T15:20:00.169Z,6.55
2023-04-18T15:22:28.652Z,7.20
2023-04-18T15:24:57.101Z,6.95
2023-04-18T15:27:25.568Z,6.10
2023-04-18T15:29:54.032Z,6.73
2023-04-18T15:32:23.316Z,6.63
2023-04-18T15:34:52.012Z,7.03
2023-04-18T15:37:22.087Z,6.45
2023-04-18T15:39:50.739Z,6.78
2023-04-18T15:42:19.540Z,6.70
2023-04-18T15:44:48.244Z,6.78
2023-04-18T15:47:17.218Z,7.15
2023-04-18T15:49:45.777Z,6.75
2023-04-18T15:52:16.084Z,7.28
2023-04-18T15:54:45.710Z,6.50
2023-04-18T15:57:14.134Z,6.82
2023-04-18T15:59:42.765Z,6.93
2023-04-18T16:02:11.649Z,7.50
2023-04-18T16:04:40.415Z,6.90
2023-04-18T16:07:09.175Z,7.07
2023-04-18T16:09:37.895Z,8.05
2023-04-18T16:12:09.092Z,8.30
2023-04-18T16:14:37.977Z,7.57
2023-04-18T16:17:11.367Z,8.10
2023-04-18T16:19:43.134Z,7.30
2023-04-18T16:22:15.204Z,8.00
2023-04-18T16:24:43.830Z,6.93
2023-04-18T16:27:16.043Z,7.35
2023-04-18T16:29:47.683Z,7.72
2023-04-18T16:32:16.367Z,8.03
2023-04-18T16:34:44.884Z,8.00
2023-04-18T16:37:13.391Z,7.75
2023-04-18T16:39:41.951Z,8.68
2023-04-18T16:42:19.460Z,8.20
2023-04-18T16:44:48.229Z,7.77
2023-04-18T16:47:30.809Z,7.13
2023-04-18T16:49:59.712Z,7.15
2023-04-18T16:52:28.735Z,7.20
2023-04-18T16:54:57.532Z,7.35
2023-04-18T16:57:31.564Z,7.43
2023-04-18T17:00:02.436Z,7.90
2023-04-18T17:02:32.706Z,7.20
2023-04-18T17:05:01.658Z,7.85
2023-04-18T17:07:30.457Z,7.97
2023-04-18T17:10:08.801Z,7.77
2023-04-18T17:12:42.791Z,7.85
2023-04-18T17:15:12.342Z,8.02
2023-04-18T17:17:47.110Z,7.85
2023-04-18T17:20:18.260Z,7.45
2023-04-18T17:22:49.672Z,7.80
2023-04-18T17:25:20.862Z,8.30
2023-04-18T17:27:50.521Z,8.18
2023-04-18T17:30:19.141Z,8.13
2023-04-18T17:32:50.610Z,8.63
2023-04-18T17:35:19.281Z,8.10
2023-04-18T17:37:48.795Z,8.18
2023-04-18T17:44:14.261Z,8.07
2023-04-18T17:51:28.030Z,7.57
2023-04-18T17:54:34.596Z,7.30
2023-04-18T17:57:03.835Z,7.80
2023-04-18T17:59:37.907Z,7.53
2023-04-18T19:10:21.233Z,7.87
2023-04-18T19:17:56.616Z,7.65
2023-04-18T19:22:25.300Z,8.60
2023-04-18T19:28:54.023Z,7.93
2023-04-18T19:31:26.460Z,20.70
2023-04-18T19:33:56.909Z,26.83
2023-04-18T19:36:27.649Z,17.38
2023-04-18T19:38:57.877Z,11.20
2023-04-18T19:41:31.159Z,13.70
2023-04-18T19:44:16.172Z,16.13
2023-04-18T19:46:54.243Z,11.02
2023-04-18T19:49:35.150Z,11.95
2023-04-18T19:52:28.168Z,9.75
2023-04-18T19:55:15.559Z,10.33
2023-04-18T19:58:45.639Z,10.55
2023-04-18T20:01:15.203Z,9.40
2023-04-18T20:03:44.709Z,13.02
2023-04-18T20:06:13.296Z,11.20
2023-04-18T20:08:43.081Z,27.63
2023-04-18T20:11:12.532Z,13.27
2023-04-18T20:13:41.511Z,9.38
2023-04-18T20:16:11.114Z,10.65
2023-04-18T20:18:41.440Z,10.32
2023-04-18T20:21:10.803Z,28.63
2023-04-18T20:23:45.308Z,15.60
2023-04-18T20:26:13.843Z,8.07
2023-04-18T20:28:42.486Z,8.30
2023-04-18T20:31:12.593Z,16.42
2023-04-18T20:33:41.394Z,9.07
2023-04-18T20:36:09.986Z,11.05
2023-04-18T20:38:40.283Z,9.88
2023-04-18T20:41:10.886Z,18.15
2023-04-18T20:43:42.940Z,13.13
2023-04-18T20:46:14.014Z,15.83
2023-04-18T20:48:43.905Z,9.93
2023-04-18T20:51:12.444Z,7.03
2023-04-18T20:53:43.490Z,13.95
2023-04-18T20:56:13.078Z,11.80
2023-04-18T20:58:41.976Z,15.23
2023-04-18T21:01:15.676Z,9.38
2023-04-18T21:03:44.414Z,6.75
2023-04-18T21:06:13.155Z,7.13
2023-04-18T21:08:41.630Z,8.70
2023-04-18T21:11:14.724Z,7.90
2023-04-18T21:13:44.381Z,12.48
2023-04-18T21:16:15.963Z,12.30
2023-04-18T21:18:44.507Z,7.68
2023-04-18T21:21:13.042Z,6.93
2023-04-18T21:23:45.065Z,6.77
2023-04-18T21:26:23.235Z,6.47
2023-04-18T21:28:56.267Z,6.38
2023-04-18T21:31:25.003Z,6.90
2023-04-18T21:33:54.417Z,6.97
2023-04-18T21:36:22.908Z,6.60
2023-04-18T21:38:55.658Z,6.57
2023-04-18T21:41:26.311Z,6.75
2023-04-18T21:43:54.900Z,6.38
2023-04-18T21:46:23.474Z,7.10
2023-04-18T21:48:52.060Z,6.67
2023-04-18T21:51:20.637Z,6.80
2023-04-18T21:53:49.110Z,6.38
2023-04-18T21:56:17.903Z,6.95
2023-04-18T21:58:47.716Z,6.47
2023-04-18T22:01:16.265Z,6.63
2023-04-18T22:03:45.142Z,7.32
2023-04-18T22:06:13.737Z,6.97
2023-04-18T22:08:43.388Z,7.40
2023-04-18T22:11:16.325Z,6.82
2023-04-18T22:13:46.065Z,6.50
2023-04-18T22:16:17.978Z,6.85
2023-04-18T22:18:47.277Z,6.78
2023-04-18T22:21:16.047Z,6.40
2023-04-18T22:23:44.606Z,6.93
2023-04-18T22:26:14.532Z,7.30
2023-04-18T22:28:43.648Z,6.75
2023-04-18T22:31:12.332Z,6.90
2023-04-18T22:33:41.904Z,7.03
2023-04-18T22:36:10.792Z,6.78
2023-04-18T22:38:39.397Z,7.13
2023-04-18T22:41:07.971Z,7.10
2023-04-18T22:43:36.579Z,7.13
2023-04-18T22:46:05.273Z,7.15
2023-04-18T22:48:35.207Z,6.72
2023-04-18T22:51:05.197Z,7.57
2023-04-18T22:53:33.949Z,7.05
2023-04-18T22:56:02.648Z,6.90
2023-04-18T22:58:34.002Z,6.78
2023-04-18T23:01:02.671Z,7.20
2023-04-18T23:03:34.357Z,7.00
2023-04-18T23:06:03.248Z,7.00
2023-04-18T23:08:32.944Z,7.00
2023-04-18T23:11:01.567Z,6.75
2023-04-18T23:13:30.140Z,6.95
2023-04-18T23:15:58.750Z,7.20
2023-04-18T23:18:27.266Z,7.22
2023-04-18T23:20:55.821Z,6.72
2023-04-18T23:23:24.327Z,6.93
2023-04-18T23:25:53.956Z,7.13
2023-04-18T23:28:22.727Z,7.27
2023-04-18T23:30:51.347Z,6.85
2023-04-18T23:33:19.900Z,7.28
2023-04-18T23:35:48.488Z,8.00
2023-04-18T23:38:16.961Z,7.07
2023-04-18T23:40:45.556Z,7.33
2023-04-18T23:43:17.103Z,7.38
2023-04-18T23:45:45.694Z,7.72
2023-04-18T23:48:14.220Z,7.43
2023-04-18T23:50:46.982Z,7.80
2023-04-18T23:53:16.552Z,7.23
2023-04-18T23:55:45.159Z,8.23
2023-04-18T23:58:14.952Z,7.75
